INT weather

Smith Reynolds Airport
Winston Salem, North Carolina, United States

Public forecast

Using degrees Fahrenheit for public forecast. Weather courtesy of forecast.io.

METAR (pilot weather report)

Retrieved 2019/09/19 00:54 UTC (30 minutes ago):

KINT 190054Z 04003KT 10SM CLR 19/15 A3018 RMK AO2 SLP213 T01940150

TAF (pilot weather forecast)

Forecast is more than 12 hours old.

Retrieved 2019/09/18 00:22 UTC (1 day ago):

TAF KINT 182320Z 1900/1924 VRB02KT P6SM FEW120 FM191400 06007G12KT P6SM FEW150 FM192000 VRB04KT P6SM FEW250